sensor_id;sensor_type;location;lat;lon;timestamp;pressure;altitude;pressure_sealevel;temperature;humidity
31595;BME280;18200;48.726;8.892;2023-03-31T00:00:16;96163.28;;;24.00;32.92
31595;BME280;18200;48.726;8.892;2023-03-31T00:04:16;96159.31;;;23.92;32.87
31595;BME280;18200;48.726;8.892;2023-03-31T00:08:17;96166.88;;;23.34;33.78
31595;BME280;18200;48.726;8.892;2023-03-31T00:12:18;96151.97;;;23.44;34.12
31595;BME280;18200;48.726;8.892;2023-03-31T00:16:18;96145.13;;;23.66;33.06
31595;BME280;18200;48.726;8.892;2023-03-31T00:20:19;96138.00;;;24.05;32.73
31595;BME280;18200;48.726;8.892;2023-03-31T00:24:19;96133.72;;;23.59;34.32
31595;BME280;18200;48.726;8.892;2023-03-31T00:28:20;96122.94;;;23.25;34.45
31595;BME280;18200;48.726;8.892;2023-03-31T00:32:21;96126.56;;;21.99;36.80
31595;BME280;18200;48.726;8.892;2023-03-31T00:36:22;96120.44;;;22.99;35.23
31595;BME280;18200;48.726;8.892;2023-03-31T00:40:29;96115.41;;;23.38;33.83
31595;BME280;18200;48.726;8.892;2023-03-31T00:44:30;96105.84;;;23.69;33.54
31595;BME280;18200;48.726;8.892;2023-03-31T00:48:33;96112.66;;;23.38;34.01
31595;BME280;18200;48.726;8.892;2023-03-31T00:52:35;96098.53;;;22.99;34.05
31595;BME280;18200;48.726;8.892;2023-03-31T00:56:39;96097.81;;;22.77;35.62
31595;BME280;18200;48.726;8.892;2023-03-31T01:00:41;96088.59;;;23.69;33.04
31595;BME280;18200;48.726;8.892;2023-03-31T01:05:00;96079.78;;;23.74;33.12
31595;BME280;18200;48.726;8.892;2023-03-31T01:09:01;96040.44;;;24.04;33.27
31595;BME280;18200;48.726;8.892;2023-03-31T01:13:06;96035.44;;;23.57;34.14
31595;BME280;18200;48.726;8.892;2023-03-31T01:17:07;96045.84;;;22.95;34.89
31595;BME280;18200;48.726;8.892;2023-03-31T01:35:13;96061.03;;;23.54;33.33
31595;BME280;18200;48.726;8.892;2023-03-31T01:48:11;96080.84;;;23.67;34.14
31595;BME280;18200;48.726;8.892;2023-03-31T01:52:24;96073.41;;;21.53;38.04
31595;BME280;18200;48.726;8.892;2023-03-31T01:56:33;96049.53;;;21.44;38.35
31595;BME280;18200;48.726;8.892;2023-03-31T02:00:50;96042.28;;;23.44;35.04
31595;BME280;18200;48.726;8.892;2023-03-31T02:04:56;96047.47;;;23.42;35.75
31595;BME280;18200;48.726;8.892;2023-03-31T02:09:05;96033.25;;;24.07;34.42
31595;BME280;18200;48.726;8.892;2023-03-31T02:13:09;96019.66;;;24.03;34.86
31595;BME280;18200;48.726;8.892;2023-03-31T02:17:14;96004.44;;;24.11;35.06
31595;BME280;18200;48.726;8.892;2023-03-31T02:21:19;95995.63;;;23.80;34.79
31595;BME280;18200;48.726;8.892;2023-03-31T02:25:28;95992.53;;;24.14;34.57
31595;BME280;18200;48.726;8.892;2023-03-31T02:29:31;95956.38;;;24.16;34.60
31595;BME280;18200;48.726;8.892;2023-03-31T02:33:32;95927.63;;;23.93;35.35
31595;BME280;18200;48.726;8.892;2023-03-31T02:37:33;95906.22;;;23.64;35.20
31595;BME280;18200;48.726;8.892;2023-03-31T02:41:33;95905.78;;;23.57;35.24
31595;BME280;18200;48.726;8.892;2023-03-31T02:45:47;95896.88;;;23.80;35.15
31595;BME280;18200;48.726;8.892;2023-03-31T02:49:53;95883.28;;;23.85;35.27
31595;BME280;18200;48.726;8.892;2023-03-31T02:54:04;95880.28;;;24.16;34.63
31595;BME280;18200;48.726;8.892;2023-03-31T02:58:43;95866.09;;;24.18;35.01
31595;BME280;18200;48.726;8.892;2023-03-31T03:07:45;95834.06;;;23.82;34.99
31595;BME280;18200;48.726;8.892;2023-03-31T03:12:07;95821.50;;;23.99;34.54
31595;BME280;18200;48.726;8.892;2023-03-31T03:16:16;95795.09;;;23.78;35.16
31595;BME280;18200;48.726;8.892;2023-03-31T03:20:19;95781.97;;;23.82;34.91
31595;BME280;18200;48.726;8.892;2023-03-31T03:24:20;95775.44;;;23.70;35.39
31595;BME280;18200;48.726;8.892;2023-03-31T03:28:21;95769.75;;;23.83;34.80
31595;BME280;18200;48.726;8.892;2023-03-31T03:32:22;95771.41;;;23.57;35.41
31595;BME280;18200;48.726;8.892;2023-03-31T03:36:22;95762.84;;;23.64;35.84
31595;BME280;18200;48.726;8.892;2023-03-31T03:40:22;95755.09;;;23.11;36.66
31595;BME280;18200;48.726;8.892;2023-03-31T03:44:23;95734.25;;;23.05;36.40
31595;BME280;18200;48.726;8.892;2023-03-31T03:48:23;95723.06;;;23.27;35.80
31595;BME280;18200;48.726;8.892;2023-03-31T03:52:24;95709.13;;;23.06;35.82
31595;BME280;18200;48.726;8.892;2023-03-31T03:56:24;95704.19;;;23.29;35.98
31595;BME280;18200;48.726;8.892;2023-03-31T04:00:25;95691.06;;;23.42;36.11
31595;BME280;18200;48.726;8.892;2023-03-31T04:04:25;95674.94;;;23.35;35.18
31595;BME280;18200;48.726;8.892;2023-03-31T04:08:26;95663.03;;;23.05;36.58
31595;BME280;18200;48.726;8.892;2023-03-31T04:12:26;95665.16;;;23.43;36.04
31595;BME280;18200;48.726;8.892;2023-03-31T04:16:27;95663.50;;;23.36;35.99
31595;BME280;18200;48.726;8.892;2023-03-31T04:20:27;95659.31;;;23.50;36.08
31595;BME280;18200;48.726;8.892;2023-03-31T04:24:29;95662.41;;;23.43;36.43
31595;BME280;18200;48.726;8.892;2023-03-31T04:28:31;95663.59;;;22.58;37.11
31595;BME280;18200;48.726;8.892;2023-03-31T04:32:33;95669.56;;;23.07;36.56
31595;BME280;18200;48.726;8.892;2023-03-31T04:36:35;95652.97;;;22.51;37.97
31595;BME280;18200;48.726;8.892;2023-03-31T04:40:41;95661.94;;;22.70;37.12
31595;BME280;18200;48.726;8.892;2023-03-31T04:44:41;95651.34;;;22.35;37.80
31595;BME280;18200;48.726;8.892;2023-03-31T04:48:42;95635.84;;;22.83;37.50
31595;BME280;18200;48.726;8.892;2023-03-31T04:52:43;95635.03;;;22.50;37.55
31595;BME280;18200;48.726;8.892;2023-03-31T04:56:45;95633.34;;;22.53;38.14
31595;BME280;18200;48.726;8.892;2023-03-31T05:00:45;95627.78;;;22.38;38.56
31595;BME280;18200;48.726;8.892;2023-03-31T05:04:45;95635.69;;;22.27;39.13
31595;BME280;18200;48.726;8.892;2023-03-31T05:08:46;95653.72;;;23.11;37.63
31595;BME280;18200;48.726;8.892;2023-03-31T05:12:46;95670.13;;;23.21;37.08
31595;BME280;18200;48.726;8.892;2023-03-31T05:16:48;95669.84;;;23.09;37.37
31595;BME280;18200;48.726;8.892;2023-03-31T05:20:48;95656.03;;;23.04;37.97
31595;BME280;18200;48.726;8.892;2023-03-31T05:24:49;95648.88;;;23.63;37.05
31595;BME280;18200;48.726;8.892;2023-03-31T05:28:50;95630.47;;;23.40;36.84
31595;BME280;18200;48.726;8.892;2023-03-31T05:32:51;95648.00;;;22.91;38.76
31595;BME280;18200;48.726;8.892;2023-03-31T05:36:52;95628.47;;;23.07;38.71
31595;BME280;18200;48.726;8.892;2023-03-31T05:40:53;95611.25;;;23.40;37.77
31595;BME280;18200;48.726;8.892;2023-03-31T05:44:53;95583.25;;;23.59;37.45
31595;BME280;18200;48.726;8.892;2023-03-31T05:48:53;95594.47;;;23.47;37.58
31595;BME280;18200;48.726;8.892;2023-03-31T05:52:55;95587.22;;;23.35;37.42
31595;BME280;18200;48.726;8.892;2023-03-31T05:56:57;95585.25;;;23.59;37.57
31595;BME280;18200;48.726;8.892;2023-03-31T06:05:05;95559.69;;;23.05;38.38
31595;BME280;18200;48.726;8.892;2023-03-31T06:09:05;95537.00;;;23.05;38.79
31595;BME280;18200;48.726;8.892;2023-03-31T06:13:06;95521.94;;;23.24;38.26
31595;BME280;18200;48.726;8.892;2023-03-31T06:17:06;95524.75;;;23.77;38.07
31595;BME280;18200;48.726;8.892;2023-03-31T06:21:07;95529.25;;;23.51;38.31
31595;BME280;18200;48.726;8.892;2023-03-31T06:25:09;95532.66;;;23.60;38.35
31595;BME280;18200;48.726;8.892;2023-03-31T06:29:09;95540.78;;;23.55;38.57
31595;BME280;18200;48.726;8.892;2023-03-31T06:33:10;95540.34;;;23.71;37.76
31595;BME280;18200;48.726;8.892;2023-03-31T06:37:10;95529.28;;;23.80;37.51
31595;BME280;18200;48.726;8.892;2023-03-31T06:41:12;95532.69;;;23.75;38.07
31595;BME280;18200;48.726;8.892;2023-03-31T06:45:14;95561.34;;;23.36;38.33
31595;BME280;18200;48.726;8.892;2023-03-31T06:49:15;95588.16;;;23.32;38.86
31595;BME280;18200;48.726;8.892;2023-03-31T06:53:15;95594.84;;;22.74;39.43
31595;BME280;18200;48.726;8.892;2023-03-31T06:57:16;95633.50;;;23.00;39.44
31595;BME280;18200;48.726;8.892;2023-03-31T07:01:16;95602.44;;;21.74;42.12
31595;BME280;18200;48.726;8.892;2023-03-31T07:05:16;95563.19;;;23.30;38.63
31595;BME280;18200;48.726;8.892;2023-03-31T07:09:18;95563.09;;;23.15;37.94
31595;BME280;18200;48.726;8.892;2023-03-31T07:13:22;95541.88;;;23.34;37.65
31595;BME280;18200;48.726;8.892;2023-03-31T07:17:23;95536.81;;;23.08;37.51
31595;BME280;18200;48.726;8.892;2023-03-31T07:21:25;95542.56;;;22.63;38.88
31595;BME280;18200;48.726;8.892;2023-03-31T07:25:25;95535.91;;;22.46;38.54
31595;BME280;18200;48.726;8.892;2023-03-31T07:29:26;95534.16;;;23.47;36.57
31595;BME280;18200;48.726;8.892;2023-03-31T07:33:26;95518.44;;;23.00;37.19
31595;BME280;18200;48.726;8.892;2023-03-31T07:37:27;95527.84;;;23.08;36.99
31595;BME280;18200;48.726;8.892;2023-03-31T07:41:27;95530.53;;;23.41;36.90
31595;BME280;18200;48.726;8.892;2023-03-31T07:45:28;95509.50;;;23.47;36.09
31595;BME280;18200;48.726;8.892;2023-03-31T07:49:32;95512.38;;;23.43;36.34
31595;BME280;18200;48.726;8.892;2023-03-31T07:53:32;95510.13;;;22.94;36.83
31595;BME280;18200;48.726;8.892;2023-03-31T07:57:34;95519.09;;;22.29;38.68
31595;BME280;18200;48.726;8.892;2023-03-31T08:01:34;95505.31;;;23.28;37.71
31595;BME280;18200;48.726;8.892;2023-03-31T08:05:35;95511.88;;;23.83;35.93
31595;BME280;18200;48.726;8.892;2023-03-31T08:09:36;95520.97;;;24.47;34.36
31595;BME280;18200;48.726;8.892;2023-03-31T08:13:37;95511.69;;;23.72;36.35
31595;BME280;18200;48.726;8.892;2023-03-31T08:17:38;95506.78;;;23.76;36.72
31595;BME280;18200;48.726;8.892;2023-03-31T08:21:39;95498.75;;;23.34;37.20
31595;BME280;18200;48.726;8.892;2023-03-31T08:25:39;95501.91;;;25.48;34.37
31595;BME280;18200;48.726;8.892;2023-03-31T08:29:39;95501.38;;;23.67;37.53
31595;BME280;18200;48.726;8.892;2023-03-31T08:33:41;95497.91;;;24.25;35.52
31595;BME280;18200;48.726;8.892;2023-03-31T08:37:41;95497.50;;;23.73;37.19
31595;BME280;18200;48.726;8.892;2023-03-31T08:42:01;95509.81;;;22.69;38.18
31595;BME280;18200;48.726;8.892;2023-03-31T08:46:03;95513.53;;;23.28;36.79
31595;BME280;18200;48.726;8.892;2023-03-31T08:50:12;95491.41;;;23.17;35.31
31595;BME280;18200;48.726;8.892;2023-03-31T08:54:38;95519.97;;;21.48;38.99
31595;BME280;18200;48.726;8.892;2023-03-31T08:58:43;95502.53;;;23.37;35.31
31595;BME280;18200;48.726;8.892;2023-03-31T09:02:58;95483.31;;;24.33;34.57
31595;BME280;18200;48.726;8.892;2023-03-31T09:11:39;95456.31;;;23.06;36.54
31595;BME280;18200;48.726;8.892;2023-03-31T09:15:47;95472.97;;;22.37;37.57
31595;BME280;18200;48.726;8.892;2023-03-31T09:23:54;95468.63;;;23.10;35.25
31595;BME280;18200;48.726;8.892;2023-03-31T09:27:57;95504.91;;;21.80;34.39
31595;BME280;18200;48.726;8.892;2023-03-31T09:32:28;95499.16;;;22.29;35.25
31595;BME280;18200;48.726;8.892;2023-03-31T09:36:29;95475.25;;;23.19;33.20
31595;BME280;18200;48.726;8.892;2023-03-31T09:40:30;95458.03;;;23.03;34.54
31595;BME280;18200;48.726;8.892;2023-03-31T09:44:37;95450.22;;;24.22;32.83
31595;BME280;18200;48.726;8.892;2023-03-31T09:48:40;95433.81;;;24.62;31.47
31595;BME280;18200;48.726;8.892;2023-03-31T09:52:52;95423.13;;;22.66;33.98
31595;BME280;18200;48.726;8.892;2023-03-31T09:56:54;95410.88;;;25.46;30.38
31595;BME280;18200;48.726;8.892;2023-03-31T10:01:01;95402.34;;;23.94;32.08
31595;BME280;18200;48.726;8.892;2023-03-31T10:05:04;95391.97;;;23.69;32.54
31595;BME280;18200;48.726;8.892;2023-03-31T10:09:04;95388.91;;;24.65;31.64
31595;BME280;18200;48.726;8.892;2023-03-31T10:13:09;95412.13;;;24.44;31.81
31595;BME280;18200;48.726;8.892;2023-03-31T10:17:19;95407.63;;;24.82;30.95
31595;BME280;18200;48.726;8.892;2023-03-31T10:21:27;95397.41;;;25.48;30.03
31595;BME280;18200;48.726;8.892;2023-03-31T10:25:34;95396.28;;;25.40;29.09
31595;BME280;18200;48.726;8.892;2023-03-31T10:29:35;95377.56;;;23.88;31.54
31595;BME280;18200;48.726;8.892;2023-03-31T10:33:42;95383.72;;;24.88;30.30
31595;BME280;18200;48.726;8.892;2023-03-31T10:37:47;95376.06;;;23.73;29.97
31595;BME280;18200;48.726;8.892;2023-03-31T10:41:51;95396.34;;;24.59;29.62
31595;BME280;18200;48.726;8.892;2023-03-31T10:45:54;95376.34;;;25.45;28.75
31595;BME280;18200;48.726;8.892;2023-03-31T10:49:56;95358.84;;;24.97;29.62
31595;BME280;18200;48.726;8.892;2023-03-31T10:54:00;95360.31;;;26.00;27.96
31595;BME280;18200;48.726;8.892;2023-03-31T10:58:22;95393.38;;;23.64;31.54
31595;BME280;18200;48.726;8.892;2023-03-31T11:02:49;95407.16;;;22.08;32.97
31595;BME280;18200;48.726;8.892;2023-03-31T11:15:24;95559.72;;;17.71;45.55
31595;BME280;18200;48.726;8.892;2023-03-31T11:19:43;95523.50;;;18.91;42.18
31595;BME280;18200;48.726;8.892;2023-03-31T11:24:09;95507.50;;;18.42;43.39
31595;BME280;18200;48.726;8.892;2023-03-31T11:28:35;95527.63;;;18.83;41.16
31595;BME280;18200;48.726;8.892;2023-03-31T11:32:51;95516.78;;;18.57;42.25
31595;BME280;18200;48.726;8.892;2023-03-31T11:38:00;95517.59;;;19.26;40.38
31595;BME280;18200;48.726;8.892;2023-03-31T11:41:45;95481.06;;;20.10;39.78
31595;BME280;18200;48.726;8.892;2023-03-31T11:45:57;95473.13;;;19.08;40.48
31595;BME280;18200;48.726;8.892;2023-03-31T11:50:03;95463.44;;;21.91;37.16
31595;BME280;18200;48.726;8.892;2023-03-31T11:54:29;95432.63;;;22.79;35.21
31595;BME280;18200;48.726;8.892;2023-03-31T11:58:39;95434.78;;;21.32;38.42
31595;BME280;18200;48.726;8.892;2023-03-31T12:03:09;95408.97;;;24.02;34.35
31595;BME280;18200;48.726;8.892;2023-03-31T12:07:31;95403.25;;;21.91;36.49
31595;BME280;18200;48.726;8.892;2023-03-31T12:16:05;95392.56;;;24.22;33.36
31595;BME280;18200;48.726;8.892;2023-03-31T12:20:19;95390.97;;;25.11;31.96
31595;BME280;18200;48.726;8.892;2023-03-31T12:24:21;95389.47;;;24.70;32.91
31595;BME280;18200;48.726;8.892;2023-03-31T12:28:23;95357.84;;;24.19;32.04
31595;BME280;18200;48.726;8.892;2023-03-31T12:32:32;95373.59;;;24.04;33.73
31595;BME280;18200;48.726;8.892;2023-03-31T12:41:02;95330.16;;;24.78;31.48
31595;BME280;18200;48.726;8.892;2023-03-31T12:45:29;95323.84;;;23.82;32.58
31595;BME280;18200;48.726;8.892;2023-03-31T12:49:50;95330.16;;;24.78;31.18
31595;BME280;18200;48.726;8.892;2023-03-31T13:02:28;95402.09;;;21.64;35.34
31595;BME280;18200;48.726;8.892;2023-03-31T13:10:32;95471.09;;;18.52;42.04
31595;BME280;18200;48.726;8.892;2023-03-31T13:14:37;95449.34;;;19.64;41.60
31595;BME280;18200;48.726;8.892;2023-03-31T13:18:38;95480.53;;;17.98;44.73
31595;BME280;18200;48.726;8.892;2023-03-31T13:22:45;95419.09;;;20.02;41.35
31595;BME280;18200;48.726;8.892;2023-03-31T13:26:47;95434.06;;;18.68;42.09
31595;BME280;18200;48.726;8.892;2023-03-31T13:34:57;95454.00;;;18.39;43.80
31595;BME280;18200;48.726;8.892;2023-03-31T13:39:15;95446.75;;;18.11;43.48
31595;BME280;18200;48.726;8.892;2023-03-31T13:43:51;95425.44;;;18.22;42.94
31595;BME280;18200;48.726;8.892;2023-03-31T13:48:17;95357.72;;;19.27;42.36
31595;BME280;18200;48.726;8.892;2023-03-31T13:52:46;95314.13;;;21.84;36.76
31595;BME280;18200;48.726;8.892;2023-03-31T14:01:38;95298.00;;;23.88;34.18
31595;BME280;18200;48.726;8.892;2023-03-31T14:05:51;95307.75;;;24.85;33.10
31595;BME280;18200;48.726;8.892;2023-03-31T14:09:54;95319.13;;;23.82;34.92
31595;BME280;18200;48.726;8.892;2023-03-31T14:14:14;95315.47;;;25.32;32.16
31595;BME280;18200;48.726;8.892;2023-03-31T14:18:26;95326.41;;;24.20;34.76
31595;BME280;18200;48.726;8.892;2023-03-31T14:31:30;95307.59;;;24.74;32.69
31595;BME280;18200;48.726;8.892;2023-03-31T14:35:36;95304.66;;;25.49;31.68
31595;BME280;18200;48.726;8.892;2023-03-31T14:39:50;95322.19;;;24.80;32.14
31595;BME280;18200;48.726;8.892;2023-03-31T14:43:52;95319.63;;;25.22;31.87
31595;BME280;18200;48.726;8.892;2023-03-31T14:47:54;95322.19;;;23.41;34.50
31595;BME280;18200;48.726;8.892;2023-03-31T14:52:00;95312.53;;;23.01;36.90
31595;BME280;18200;48.726;8.892;2023-03-31T14:56:11;95315.56;;;26.05;31.46
31595;BME280;18200;48.726;8.892;2023-03-31T15:00:16;95304.56;;;26.59;30.84
31595;BME280;18200;48.726;8.892;2023-03-31T15:04:22;95298.16;;;25.26;31.80
31595;BME280;18200;48.726;8.892;2023-03-31T15:08:24;95301.38;;;22.90;35.27
31595;BME280;18200;48.726;8.892;2023-03-31T15:12:27;95292.53;;;23.39;35.36
31595;BME280;18200;48.726;8.892;2023-03-31T15:16:44;95301.84;;;23.62;34.36
31595;BME280;18200;48.726;8.892;2023-03-31T15:20:45;95287.84;;;24.70;32.08
31595;BME280;18200;48.726;8.892;2023-03-31T15:24:45;95300.63;;;24.32;31.71
31595;BME280;18200;48.726;8.892;2023-03-31T15:28:51;95296.16;;;24.35;32.42
31595;BME280;18200;48.726;8.892;2023-03-31T15:32:53;95316.38;;;24.17;32.13
31595;BME280;18200;48.726;8.892;2023-03-31T15:36:54;95316.28;;;23.77;32.68
31595;BME280;18200;48.726;8.892;2023-03-31T15:40:56;95307.22;;;24.81;32.27
31595;BME280;18200;48.726;8.892;2023-03-31T15:49:22;95293.88;;;24.13;32.02
31595;BME280;18200;48.726;8.892;2023-03-31T15:53:30;95306.09;;;24.12;32.42
31595;BME280;18200;48.726;8.892;2023-03-31T15:57:33;95304.16;;;23.49;32.78
31595;BME280;18200;48.726;8.892;2023-03-31T16:01:43;95327.03;;;21.84;35.15
31595;BME280;18200;48.726;8.892;2023-03-31T16:05:55;95349.38;;;23.88;32.89
31595;BME280;18200;48.726;8.892;2023-03-31T16:10:02;95355.91;;;21.76;37.18
31595;BME280;18200;48.726;8.892;2023-03-31T16:14:12;95379.09;;;20.66;39.22
31595;BME280;18200;48.726;8.892;2023-03-31T16:22:31;95405.66;;;20.83;39.52
31595;BME280;18200;48.726;8.892;2023-03-31T16:26:35;95347.84;;;20.85;39.71
31595;BME280;18200;48.726;8.892;2023-03-31T16:30:39;95321.34;;;22.20;37.87
31595;BME280;18200;48.726;8.892;2023-03-31T16:34:55;95321.66;;;21.89;36.23
31595;BME280;18200;48.726;8.892;2023-03-31T16:38:56;95310.63;;;21.84;36.60
31595;BME280;18200;48.726;8.892;2023-03-31T16:43:11;95306.16;;;23.34;34.21
31595;BME280;18200;48.726;8.892;2023-03-31T16:47:12;95290.91;;;23.33;34.06
31595;BME280;18200;48.726;8.892;2023-03-31T16:51:13;95304.53;;;24.06;32.76
31595;BME280;18200;48.726;8.892;2023-03-31T16:55:14;95309.50;;;22.99;34.40
31595;BME280;18200;48.726;8.892;2023-03-31T16:59:14;95305.56;;;24.28;32.30
31595;BME280;18200;48.726;8.892;2023-03-31T17:03:15;95314.44;;;23.39;33.05
31595;BME280;18200;48.726;8.892;2023-03-31T17:07:15;95324.97;;;22.26;35.11
31595;BME280;18200;48.726;8.892;2023-03-31T17:11:16;95308.38;;;23.50;33.33
31595;BME280;18200;48.726;8.892;2023-03-31T17:15:16;95318.50;;;23.14;34.03
31595;BME280;18200;48.726;8.892;2023-03-31T17:19:17;95315.06;;;22.52;34.71
31595;BME280;18200;48.726;8.892;2023-03-31T17:23:17;95326.00;;;22.52;33.94
31595;BME280;18200;48.726;8.892;2023-03-31T17:27:17;95332.72;;;22.89;33.21
31595;BME280;18200;48.726;8.892;2023-03-31T17:31:20;95328.84;;;22.81;33.63
31595;BME280;18200;48.726;8.892;2023-03-31T17:35:20;95332.13;;;22.71;33.71
31595;BME280;18200;48.726;8.892;2023-03-31T17:39:21;95328.00;;;23.04;33.70
31595;BME280;18200;48.726;8.892;2023-03-31T17:43:21;95331.50;;;22.90;33.80
31595;BME280;18200;48.726;8.892;2023-03-31T17:47:22;95349.50;;;22.68;34.47
31595;BME280;18200;48.726;8.892;2023-03-31T17:51:23;95346.34;;;22.60;34.55
31595;BME280;18200;48.726;8.892;2023-03-31T17:55:23;95355.41;;;23.04;33.76
31595;BME280;18200;48.726;8.892;2023-03-31T17:59:24;95362.16;;;22.80;34.27
31595;BME280;18200;48.726;8.892;2023-03-31T18:03:27;95372.09;;;23.45;33.84
31595;BME280;18200;48.726;8.892;2023-03-31T18:07:27;95382.50;;;23.41;34.24
31595;BME280;18200;48.726;8.892;2023-03-31T18:11:28;95394.63;;;23.63;33.93
31595;BME280;18200;48.726;8.892;2023-03-31T18:15:28;95386.94;;;23.82;34.15
31595;BME280;18200;48.726;8.892;2023-03-31T18:19:29;95392.16;;;22.27;36.06
31595;BME280;18200;48.726;8.892;2023-03-31T18:23:29;95384.22;;;23.00;35.04
31595;BME280;18200;48.726;8.892;2023-03-31T18:27:31;95374.88;;;23.06;35.30
31595;BME280;18200;48.726;8.892;2023-03-31T18:31:32;95374.47;;;22.84;34.71
31595;BME280;18200;48.726;8.892;2023-03-31T18:35:32;95369.56;;;22.41;36.04
31595;BME280;18200;48.726;8.892;2023-03-31T18:39:32;95378.19;;;21.32;37.84
31595;BME280;18200;48.726;8.892;2023-03-31T18:43:33;95369.03;;;22.52;35.84
31595;BME280;18200;48.726;8.892;2023-03-31T18:47:34;95365.41;;;21.89;36.91
31595;BME280;18200;48.726;8.892;2023-03-31T18:51:35;95369.59;;;21.67;37.31
31595;BME280;18200;48.726;8.892;2023-03-31T18:55:35;95359.03;;;21.50;37.99
31595;BME280;18200;48.726;8.892;2023-03-31T18:59:36;95365.44;;;21.29;38.36
31595;BME280;18200;48.726;8.892;2023-03-31T19:03:36;95360.25;;;21.40;37.37
31595;BME280;18200;48.726;8.892;2023-03-31T19:07:37;95371.88;;;22.10;36.82
31595;BME280;18200;48.726;8.892;2023-03-31T19:11:38;95373.31;;;22.76;35.51
31595;BME280;18200;48.726;8.892;2023-03-31T19:15:38;95370.56;;;22.29;36.34
31595;BME280;18200;48.726;8.892;2023-03-31T19:19:38;95377.03;;;22.64;35.33
31595;BME280;18200;48.726;8.892;2023-03-31T19:23:39;95376.78;;;22.77;34.79
31595;BME280;18200;48.726;8.892;2023-03-31T19:27:40;95381.81;;;21.98;36.62
31595;BME280;18200;48.726;8.892;2023-03-31T19:31:41;95370.56;;;22.53;35.73
31595;BME280;18200;48.726;8.892;2023-03-31T19:35:45;95382.84;;;22.01;36.70
31595;BME280;18200;48.726;8.892;2023-03-31T19:39:46;95372.13;;;22.21;35.94
31595;BME280;18200;48.726;8.892;2023-03-31T19:43:47;95374.97;;;22.59;35.11
31595;BME280;18200;48.726;8.892;2023-03-31T19:47:48;95376.47;;;22.51;34.92
31595;BME280;18200;48.726;8.892;2023-03-31T19:51:48;95388.34;;;22.57;34.96
31595;BME280;18200;48.726;8.892;2023-03-31T19:56:00;95383.41;;;22.14;36.04
31595;BME280;18200;48.726;8.892;2023-03-31T20:00:02;95368.66;;;23.06;34.75
31595;BME280;18200;48.726;8.892;2023-03-31T20:04:05;95373.19;;;23.09;34.62
31595;BME280;18200;48.726;8.892;2023-03-31T20:08:06;95406.91;;;21.88;35.83
31595;BME280;18200;48.726;8.892;2023-03-31T20:12:06;95425.09;;;21.40;37.09
31595;BME280;18200;48.726;8.892;2023-03-31T20:16:12;95395.38;;;21.75;37.83
31595;BME280;18200;48.726;8.892;2023-03-31T20:20:12;95399.28;;;21.92;38.35
31595;BME280;18200;48.726;8.892;2023-03-31T20:24:17;95403.56;;;22.49;37.07
31595;BME280;18200;48.726;8.892;2023-03-31T20:28:17;95389.50;;;21.67;38.52
31595;BME280;18200;48.726;8.892;2023-03-31T20:32:18;95386.97;;;22.29;37.36
31595;BME280;18200;48.726;8.892;2023-03-31T20:36:21;95402.91;;;21.47;39.03
31595;BME280;18200;48.726;8.892;2023-03-31T20:40:21;95392.22;;;22.42;36.64
31595;BME280;18200;48.726;8.892;2023-03-31T20:44:22;95402.56;;;22.14;37.19
31595;BME280;18200;48.726;8.892;2023-03-31T20:48:23;95403.25;;;21.91;37.58
31595;BME280;18200;48.726;8.892;2023-03-31T20:52:24;95414.28;;;21.36;38.40
31595;BME280;18200;48.726;8.892;2023-03-31T20:56:27;95406.06;;;21.63;37.68
31595;BME280;18200;48.726;8.892;2023-03-31T21:00:28;95393.25;;;22.20;37.10
31595;BME280;18200;48.726;8.892;2023-03-31T21:04:29;95402.41;;;21.57;38.02
31595;BME280;18200;48.726;8.892;2023-03-31T21:08:29;95399.06;;;21.62;37.92
31595;BME280;18200;48.726;8.892;2023-03-31T21:12:30;95393.56;;;22.46;36.71
31595;BME280;18200;48.726;8.892;2023-03-31T21:16:30;95392.75;;;22.31;36.63
31595;BME280;18200;48.726;8.892;2023-03-31T21:20:32;95399.81;;;22.14;36.53
31595;BME280;18200;48.726;8.892;2023-03-31T21:24:32;95410.16;;;21.59;37.54
31595;BME280;18200;48.726;8.892;2023-03-31T21:28:36;95415.75;;;22.48;36.54
31595;BME280;18200;48.726;8.892;2023-03-31T21:32:37;95417.34;;;22.87;35.21
31595;BME280;18200;48.726;8.892;2023-03-31T21:36:37;95413.44;;;21.90;37.00
31595;BME280;18200;48.726;8.892;2023-03-31T21:40:38;95443.41;;;20.76;39.64
31595;BME280;18200;48.726;8.892;2023-03-31T21:44:38;95438.25;;;21.59;37.95
31595;BME280;18200;48.726;8.892;2023-03-31T21:48:39;95438.59;;;22.36;37.25
31595;BME280;18200;48.726;8.892;2023-03-31T21:52:39;95444.34;;;22.14;36.71
31595;BME280;18200;48.726;8.892;2023-03-31T21:56:39;95453.19;;;21.22;38.61
31595;BME280;18200;48.726;8.892;2023-03-31T22:00:39;95455.00;;;21.07;38.82
31595;BME280;18200;48.726;8.892;2023-03-31T22:04:40;95453.78;;;21.44;38.22
31595;BME280;18200;48.726;8.892;2023-03-31T22:08:40;95453.16;;;21.40;38.46
31595;BME280;18200;48.726;8.892;2023-03-31T22:12:41;95459.09;;;21.12;39.16
31595;BME280;18200;48.726;8.892;2023-03-31T22:16:41;95457.97;;;21.00;38.67
31595;BME280;18200;48.726;8.892;2023-03-31T22:20:42;95448.22;;;21.81;37.24
31595;BME280;18200;48.726;8.892;2023-03-31T22:24:42;95454.06;;;21.19;38.59
31595;BME280;18200;48.726;8.892;2023-03-31T22:28:43;95453.13;;;21.68;37.46
31595;BME280;18200;48.726;8.892;2023-03-31T22:32:43;95449.22;;;21.05;38.65
31595;BME280;18200;48.726;8.892;2023-03-31T22:36:45;95446.78;;;21.25;37.98
31595;BME280;18200;48.726;8.892;2023-03-31T22:40:46;95438.56;;;20.80;39.02
31595;BME280;18200;48.726;8.892;2023-03-31T22:44:46;95436.44;;;20.75;38.64
31595;BME280;18200;48.726;8.892;2023-03-31T22:48:47;95429.47;;;20.74;39.24
31595;BME280;18200;48.726;8.892;2023-03-31T22:52:48;95438.88;;;20.82;39.05
31595;BME280;18200;48.726;8.892;2023-03-31T22:56:49;95437.81;;;20.98;38.38
31595;BME280;18200;48.726;8.892;2023-03-31T23:00:57;95435.84;;;20.80;38.62
31595;BME280;18200;48.726;8.892;2023-03-31T23:04:57;95430.38;;;20.71;38.83
31595;BME280;18200;48.726;8.892;2023-03-31T23:08:58;95422.41;;;21.82;36.66